createdAt,value
2019-04-07T00:00:24.306Z,101029.70
2019-04-07T00:02:54.602Z,101027.25
2019-04-07T00:05:23.768Z,101021.15
2019-04-07T00:07:53.183Z,101023.90
2019-04-07T00:10:22.445Z,101018.77
2019-04-07T00:12:52.359Z,101021.10
2019-04-07T00:15:22.213Z,101020.43
2019-04-07T00:17:51.603Z,101019.28
2019-04-07T00:20:20.917Z,101013.25
2019-04-07T00:22:50.341Z,101008.45
2019-04-07T00:25:27.564Z,101008.59
2019-04-07T00:27:57.510Z,101004.28
2019-04-07T00:30:26.713Z,101004.34
2019-04-07T00:32:56.283Z,100996.53
2019-04-07T00:35:30.956Z,101003.05
2019-04-07T00:37:57.220Z,100997.02
2019-04-07T00:40:26.490Z,100996.53
2019-04-07T00:42:55.777Z,100993.03
2019-04-07T00:45:25.156Z,100996.13
2019-04-07T00:47:54.461Z,100996.53
2019-04-07T00:50:24.128Z,100993.45
2019-04-07T00:52:53.267Z,100993.03
2019-04-07T00:55:23.133Z,100988.58
2019-04-07T00:57:52.945Z,100988.58
2019-04-07T01:00:24.430Z,100993.78
2019-04-07T01:02:54.117Z,100989.39
2019-04-07T01:05:34.763Z,100990.77
2019-04-07T01:07:55.250Z,100989.87
2019-04-07T01:10:24.844Z,100988.77
2019-04-07T01:12:54.072Z,100985.91
2019-04-07T01:15:24.059Z,100983.84
2019-04-07T01:17:54.498Z,100979.27
2019-04-07T01:20:24.364Z,100982.02
2019-04-07T01:22:53.913Z,100982.16
2019-04-07T01:25:23.492Z,100978.05
2019-04-07T01:27:54.408Z,100978.61
2019-04-07T01:30:23.811Z,100981.69
2019-04-07T01:32:53.306Z,100984.63
2019-04-07T01:35:22.957Z,100982.09
2019-04-07T01:37:52.171Z,100984.50
2019-04-07T01:40:21.494Z,100979.09
2019-04-07T01:43:04.572Z,100980.20
2019-04-07T01:45:54.597Z,100981.23
2019-04-07T01:48:33.851Z,100981.84
2019-04-07T01:51:21.122Z,100987.68
2019-04-07T01:54:00.958Z,100985.21
2019-04-07T01:56:48.177Z,100979.37
2019-04-07T01:59:39.909Z,100988.91
2019-04-07T02:02:43.202Z,100989.95
2019-04-07T02:05:35.292Z,100993.09
2019-04-07T02:08:29.802Z,100997.08
2019-04-07T02:11:18.725Z,101005.38
2019-04-07T02:14:16.336Z,100991.86
2019-04-07T02:17:05.431Z,100985.28
2019-04-07T02:19:40.466Z,100968.68
2019-04-07T02:22:26.460Z,100969.57
2019-04-07T02:25:09.789Z,100969.91
2019-04-07T02:27:57.841Z,100965.38
2019-04-07T02:30:49.448Z,100966.75
2019-04-07T02:33:34.966Z,100965.52
2019-04-07T02:36:31.337Z,100959.35
2019-04-07T02:39:17.373Z,100951.33
2019-04-07T02:42:25.088Z,100953.03
2019-04-07T02:45:28.539Z,100944.53
2019-04-07T02:48:22.096Z,100944.53
2019-04-07T02:51:13.393Z,100939.25
2019-04-07T02:53:51.006Z,100933.08
2019-04-07T02:56:46.148Z,100922.25
2019-04-07T02:59:27.265Z,100917.86
2019-04-07T03:02:10.176Z,100901.61
2019-04-07T03:05:02.200Z,100899.28
2019-04-07T03:07:53.568Z,100894.75
2019-04-07T03:10:40.519Z,100891.19
2019-04-07T03:13:29.136Z,100902.84
2019-04-07T03:16:20.144Z,100895.78
2019-04-07T03:18:59.123Z,100888.92
2019-04-07T03:21:43.230Z,100882.28
2019-04-07T03:24:37.813Z,100875.77
2019-04-07T03:27:17.690Z,100871.86
2019-04-07T03:30:15.469Z,100871.59
2019-04-07T03:33:12.963Z,100873.09
2019-04-07T03:35:52.479Z,100867.61
2019-04-07T03:38:48.323Z,100870.22
2019-04-07T03:41:23.853Z,100868.57
2019-04-07T03:44:18.585Z,100866.86
2019-04-07T03:47:14.260Z,100857.13
2019-04-07T03:49:57.566Z,100856.30
2019-04-07T03:52:46.781Z,100843.48
2019-04-07T03:55:41.152Z,100841.70
2019-04-07T03:58:29.880Z,100828.95
2019-04-07T04:01:38.843Z,100827.59
2019-04-07T04:04:22.377Z,100825.73
2019-04-07T04:07:22.878Z,100811.69
2019-04-07T04:09:58.354Z,100807.23
2019-04-07T04:12:40.330Z,100804.50
2019-04-07T04:15:18.314Z,100816.69
2019-04-07T04:17:48.168Z,100813.67
2019-04-07T04:20:17.670Z,100810.32
2019-04-07T04:22:48.424Z,100797.72
2019-04-07T04:25:17.689Z,100797.23
2019-04-07T04:27:46.914Z,100792.92
2019-04-07T04:30:16.927Z,100787.37
2019-04-07T04:32:46.419Z,100788.45
2019-04-07T04:35:16.944Z,100783.87
2019-04-07T04:37:51.401Z,100784.34
2019-04-07T04:40:18.113Z,100783.05
2019-04-07T04:42:48.562Z,100795.72
2019-04-07T04:45:18.000Z,100799.42
2019-04-07T04:47:48.190Z,100801.89
2019-04-07T04:50:17.753Z,100796.14
2019-04-07T04:52:47.179Z,100802.98
2019-04-07T04:55:16.700Z,100797.16
2019-04-07T04:57:46.220Z,100794.15
2019-04-07T05:00:15.868Z,100790.31
2019-04-07T05:02:45.706Z,100785.52
2019-04-07T05:05:15.341Z,100793.81
2019-04-07T05:07:54.912Z,100784.42
2019-04-07T05:10:15.512Z,100785.80
2019-04-07T05:12:44.996Z,100798.60
2019-04-07T05:15:14.744Z,100797.50
2019-04-07T05:17:44.585Z,100801.20
2019-04-07T05:20:14.412Z,100802.02
2019-04-07T05:22:44.345Z,100806.34
2019-04-07T05:25:14.099Z,100805.78
2019-04-07T05:27:43.497Z,100805.65
2019-04-07T05:30:12.783Z,100809.48
2019-04-07T05:32:41.949Z,100806.87
2019-04-07T05:35:12.025Z,100807.29
2019-04-07T05:37:43.365Z,100803.38
2019-04-07T05:40:14.025Z,100796.20
2019-04-07T05:42:43.359Z,100786.41
2019-04-07T05:45:12.989Z,100778.80
2019-04-07T05:47:47.293Z,100791.55
2019-04-07T05:50:13.493Z,100790.11
2019-04-07T05:52:43.306Z,100783.73
2019-04-07T05:55:14.168Z,100800.92
2019-04-07T05:57:44.144Z,100803.38
2019-04-07T06:00:16.548Z,100822.22
2019-04-07T06:02:45.781Z,100826.13
2019-04-07T06:05:17.387Z,100817.22
2019-04-07T06:07:46.986Z,100814.28
2019-04-07T06:10:18.239Z,100814.80
2019-04-07T06:12:48.338Z,100833.30
2019-04-07T06:15:22.021Z,100811.17
2019-04-07T06:17:50.046Z,100795.42
2019-04-07T06:20:19.832Z,100795.75
2019-04-07T06:22:52.760Z,100797.80
2019-04-07T06:25:20.976Z,100802.44
2019-04-07T06:27:51.026Z,100814.62
2019-04-07T06:30:23.230Z,100810.65
2019-04-07T06:32:52.791Z,100811.69
2019-04-07T06:35:22.602Z,100808.42
2019-04-07T06:37:52.210Z,100802.14
2019-04-07T06:40:22.271Z,100800.17
2019-04-07T06:42:52.250Z,100794.67
2019-04-07T06:45:25.746Z,100793.93
2019-04-07T06:47:57.485Z,100781.22
2019-04-07T06:50:56.672Z,100793.91
2019-04-07T06:53:38.185Z,100798.66
2019-04-07T06:56:38.729Z,100798.12
2019-04-07T06:59:45.541Z,100795.53
2019-04-07T07:02:43.717Z,100800.10
2019-04-07T07:05:24.551Z,100803.73
2019-04-07T07:08:00.905Z,100801.75
2019-04-07T07:10:43.054Z,100798.88
2019-04-07T07:13:29.891Z,100802.09
2019-04-07T07:16:00.594Z,100799.84
2019-04-07T07:18:47.157Z,100810.45
2019-04-07T07:21:39.572Z,100801.48
2019-04-07T07:24:09.005Z,100808.26
2019-04-07T07:26:38.665Z,100809.00
2019-04-07T07:29:08.403Z,100806.19
2019-04-07T07:31:39.112Z,100801.47
2019-04-07T07:34:10.138Z,100809.14
2019-04-07T07:36:39.390Z,100807.16
2019-04-07T07:39:12.289Z,100807.84
2019-04-07T07:41:40.140Z,100808.47
2019-04-07T07:44:09.797Z,100815.80
2019-04-07T07:46:39.705Z,100812.23
2019-04-07T07:49:09.066Z,100815.80
2019-04-07T07:51:39.583Z,100809.77
2019-04-07T07:54:09.959Z,100811.20
2019-04-07T07:56:42.211Z,100812.64
2019-04-07T07:59:11.069Z,100823.47
2019-04-07T08:01:44.331Z,100822.79
2019-04-07T08:04:11.806Z,100825.59
2019-04-07T08:06:41.138Z,100818.61
2019-04-07T08:09:14.874Z,100701.09
2019-04-07T08:11:42.346Z,100815.52
2019-04-07T08:14:15.119Z,100810.32
2019-04-07T08:16:43.584Z,100818.27
2019-04-07T08:19:13.557Z,100813.40
2019-04-07T08:21:43.634Z,100693.23
2019-04-07T08:24:18.524Z,100805.44
2019-04-07T08:26:45.870Z,100808.58
2019-04-07T08:29:15.574Z,100800.05
2019-04-07T08:31:45.177Z,100804.95
2019-04-07T08:34:14.386Z,100805.50
2019-04-07T08:36:45.344Z,100806.05
2019-04-07T08:39:22.950Z,100802.22
2019-04-07T08:41:46.251Z,100803.22
2019-04-07T08:44:16.137Z,100803.10
2019-04-07T08:46:45.487Z,100805.30
2019-04-07T08:49:15.174Z,100808.97
2019-04-07T08:51:44.895Z,100805.94
2019-04-07T08:54:16.841Z,100805.09
2019-04-07T08:56:45.753Z,100808.59
2019-04-07T08:59:17.015Z,100808.42
2019-04-07T09:01:46.966Z,100804.27
2019-04-07T09:04:17.791Z,100810.80
2019-04-07T09:06:48.860Z,100806.58
2019-04-07T09:09:30.903Z,100808.06
2019-04-07T09:11:52.990Z,100802.72
2019-04-07T09:14:22.149Z,100815.84
2019-04-07T09:17:09.493Z,100820.61
2019-04-07T09:20:10.742Z,100817.55
2019-04-07T09:22:56.999Z,100815.89
2019-04-07T09:25:42.865Z,100815.64
2019-04-07T09:28:34.773Z,100819.55
2019-04-07T09:31:26.160Z,100697.59
2019-04-07T09:34:07.055Z,100812.02
2019-04-07T09:37:02.295Z,100811.40
2019-04-07T09:39:59.706Z,100696.88
2019-04-07T09:42:59.979Z,100698.39
2019-04-07T09:45:59.468Z,100804.97
2019-04-07T09:49:03.428Z,100690.48
2019-04-07T09:51:44.938Z,100803.11
2019-04-07T09:54:34.496Z,100800.95
2019-04-07T09:57:26.013Z,100797.72
2019-04-07T10:00:14.453Z,100802.63
2019-04-07T10:03:04.928Z,100796.95
2019-04-07T10:06:09.828Z,100799.20
2019-04-07T10:08:53.310Z,100806.03
2019-04-07T10:11:44.824Z,100802.91
2019-04-07T10:14:39.817Z,100800.81
2019-04-07T10:17:27.769Z,100800.77
2019-04-07T10:20:22.109Z,100677.59
2019-04-07T10:23:07.177Z,100789.30
2019-04-07T10:25:59.357Z,100789.53
2019-04-07T10:29:00.396Z,100787.30
2019-04-07T10:32:07.823Z,100791.92
2019-04-07T10:35:02.463Z,100803.78
2019-04-07T10:37:51.040Z,100792.19
2019-04-07T10:40:33.667Z,100781.62
2019-04-07T10:43:14.991Z,100782.09
2019-04-07T10:46:00.349Z,100777.50
2019-04-07T10:48:37.937Z,100775.39
2019-04-07T10:51:25.330Z,100770.19
2019-04-07T10:54:32.485Z,100765.14
2019-04-07T10:57:29.837Z,100764.00
2019-04-07T11:00:07.561Z,100767.63
2019-04-07T11:02:52.777Z,100767.27
2019-04-07T11:05:38.339Z,100767.27
2019-04-07T11:08:33.092Z,100767.41
2019-04-07T11:11:31.482Z,100767.29
2019-04-07T11:14:19.679Z,100760.05
2019-04-07T11:17:10.790Z,100760.01
2019-04-07T11:20:02.882Z,100760.01
2019-04-07T11:22:54.815Z,100766.77
2019-04-07T11:25:35.773Z,100763.08
2019-04-07T11:28:21.769Z,100652.59
2019-04-07T11:31:10.272Z,100755.47
2019-04-07T11:34:01.788Z,100716.66
2019-04-07T11:36:44.270Z,100668.22
2019-04-07T11:39:24.443Z,100756.73
2019-04-07T11:42:04.818Z,100757.91
2019-04-07T11:44:59.675Z,100759.69
2019-04-07T11:47:48.083Z,100745.03
2019-04-07T11:50:52.220Z,100749.02
2019-04-07T11:53:39.629Z,100750.39
2019-04-07T11:56:47.207Z,100745.66
2019-04-07T11:59:41.498Z,100746.55
2019-04-07T12:02:29.845Z,100746.47
2019-04-07T12:05:26.801Z,100750.51
2019-04-07T12:08:15.013Z,100754.31
2019-04-07T12:11:09.717Z,100753.95
2019-04-07T12:13:59.780Z,100747.81
2019-04-07T12:16:58.432Z,100745.77
2019-04-07T12:19:46.302Z,100743.66
2019-04-07T12:22:33.814Z,100742.59
2019-04-07T12:25:23.263Z,100750.50
2019-04-07T12:28:23.604Z,100750.30
2019-04-07T12:31:00.328Z,100758.60
2019-04-07T12:33:38.527Z,100757.73
2019-04-07T12:36:30.840Z,100743.98
2019-04-07T12:39:16.209Z,100746.75
2019-04-07T12:42:12.337Z,100747.92
2019-04-07T12:45:06.422Z,100746.75
2019-04-07T12:47:49.783Z,100745.48
2019-04-07T12:50:41.237Z,100740.26
2019-04-07T12:53:23.686Z,100749.02
2019-04-07T12:56:15.729Z,100745.39
2019-04-07T12:59:02.269Z,100746.77
2019-04-07T13:01:38.196Z,100754.38
2019-04-07T13:04:20.389Z,100747.19
2019-04-07T13:07:15.139Z,100752.97
2019-04-07T13:10:03.967Z,100759.69
2019-04-07T13:12:53.624Z,100764.91
2019-04-07T13:15:45.560Z,100759.52
2019-04-07T13:18:31.520Z,100763.95
2019-04-07T13:21:07.870Z,100751.61
2019-04-07T13:23:44.930Z,100763.52
2019-04-07T13:26:32.618Z,100760.86
2019-04-07T13:29:07.459Z,100767.84
2019-04-07T13:31:44.017Z,100764.64
2019-04-07T13:34:20.427Z,100775.09
2019-04-07T13:37:09.200Z,100767.27
2019-04-07T13:40:00.175Z,100773.98
2019-04-07T13:42:42.898Z,100773.79
2019-04-07T13:45:36.552Z,100775.84
2019-04-07T13:48:24.318Z,100770.42
2019-04-07T13:51:09.678Z,100778.03
2019-04-07T13:54:03.920Z,100781.92
2019-04-07T13:57:04.549Z,100788.22
2019-04-07T13:59:52.143Z,100790.67
2019-04-07T14:02:39.997Z,100793.67
2019-04-07T14:05:21.256Z,100798.58
2019-04-07T14:08:10.302Z,100804.71
2019-04-07T14:11:02.494Z,100798.63
2019-04-07T14:13:51.240Z,100802.64
2019-04-07T14:16:38.582Z,100799.34
2019-04-07T14:19:29.872Z,100803.11
2019-04-07T14:22:16.664Z,100798.95
2019-04-07T14:25:05.165Z,100801.78
2019-04-07T14:27:56.647Z,100803.52
2019-04-07T14:30:39.708Z,100808.58
2019-04-07T14:33:18.756Z,100803.17
2019-04-07T14:36:02.109Z,100811.80
2019-04-07T14:38:39.143Z,100813.02
2019-04-07T14:41:23.217Z,100808.62
2019-04-07T14:44:03.026Z,100814.04
2019-04-07T14:46:54.155Z,100812.63
2019-04-07T14:49:47.746Z,100809.72
2019-04-07T14:52:48.257Z,100816.44
2019-04-07T14:55:43.177Z,100826.02
2019-04-07T14:58:30.275Z,100818.12
2019-04-07T15:01:36.796Z,100822.78
2019-04-07T15:04:06.442Z,100828.02
2019-04-07T15:06:36.635Z,100825.40
2019-04-07T15:09:25.069Z,100830.58
2019-04-07T15:12:20.378Z,100828.80
2019-04-07T15:14:45.958Z,100838.43
2019-04-07T15:17:15.368Z,100842.14
2019-04-07T15:19:44.665Z,100834.28
2019-04-07T15:22:13.987Z,100839.89
2019-04-07T15:24:43.179Z,100845.75
2019-04-07T15:27:12.422Z,100845.44
2019-04-07T15:29:43.802Z,100850.22
2019-04-07T15:32:13.082Z,100850.16
2019-04-07T15:34:43.388Z,100849.69
2019-04-07T15:37:13.235Z,100851.93
2019-04-07T15:39:42.784Z,100853.91
2019-04-07T15:42:15.322Z,100848.98
2019-04-07T15:44:45.070Z,100857.25
2019-04-07T15:47:14.892Z,100856.61
2019-04-07T15:49:44.139Z,100758.66
2019-04-07T15:52:13.638Z,100858.30
2019-04-07T15:54:43.467Z,100861.11
2019-04-07T15:57:13.178Z,100869.25
2019-04-07T15:59:43.307Z,100871.81
2019-04-07T16:02:13.358Z,100868.25
2019-04-07T16:04:42.638Z,100877.70
2019-04-07T16:07:12.267Z,100871.80
2019-04-07T16:09:50.774Z,100871.50
2019-04-07T16:12:13.382Z,100878.75
2019-04-07T16:14:45.902Z,100875.55
2019-04-07T16:17:14.678Z,100877.20
2019-04-07T16:19:50.480Z,100870.20
2019-04-07T16:22:15.484Z,100871.75
2019-04-07T16:24:46.371Z,100877.56
2019-04-07T16:27:15.820Z,100871.22
2019-04-07T16:29:46.195Z,100873.58
2019-04-07T16:32:16.444Z,100864.39
2019-04-07T16:34:46.342Z,100881.36
2019-04-07T16:37:15.965Z,100879.09
2019-04-07T16:39:45.757Z,100878.53
2019-04-07T16:42:15.470Z,100882.68
2019-04-07T16:44:45.902Z,100883.39
2019-04-07T16:47:21.707Z,100879.77
2019-04-07T16:49:48.636Z,100885.75
2019-04-07T16:52:17.738Z,100884.73
2019-04-07T16:54:47.220Z,100883.78
2019-04-07T16:57:17.261Z,100886.80
2019-04-07T16:59:47.839Z,100893.62
2019-04-07T17:02:18.271Z,100772.41
2019-04-07T17:04:48.422Z,100894.67
2019-04-07T17:07:18.118Z,100897.56
2019-04-07T17:09:48.931Z,100894.41
2019-04-07T17:12:18.514Z,100895.24
2019-04-07T17:14:47.857Z,100897.66
2019-04-07T17:17:20.788Z,100897.12
2019-04-07T17:19:48.254Z,100894.66
2019-04-07T17:22:18.138Z,100902.23
2019-04-07T17:24:47.810Z,100905.59
2019-04-07T17:27:17.244Z,100905.47
2019-04-07T17:29:53.180Z,100909.25
2019-04-07T17:32:20.276Z,100906.44
2019-04-07T17:34:49.817Z,100911.52
2019-04-07T17:37:19.916Z,100913.59
2019-04-07T17:40:01.419Z,100910.09
2019-04-07T17:42:30.857Z,100917.91
2019-04-07T17:45:21.286Z,100916.89
2019-04-07T17:48:07.715Z,100914.48
2019-04-07T17:51:07.301Z,100922.24
2019-04-07T17:53:46.683Z,100803.95
2019-04-07T17:56:36.845Z,100920.47
2019-04-07T17:59:30.912Z,100918.69
2019-04-07T18:02:33.207Z,100926.84
2019-04-07T18:05:33.185Z,100808.73
2019-04-07T18:08:25.133Z,100931.64
2019-04-07T18:11:29.282Z,100932.88
2019-04-07T18:14:28.685Z,100930.69
2019-04-07T18:17:20.386Z,100936.23
2019-04-07T18:19:58.622Z,100930.06
2019-04-07T18:22:34.788Z,100926.02
2019-04-07T18:25:34.071Z,100932.20
2019-04-07T18:28:32.487Z,100929.59
2019-04-07T18:31:27.432Z,100936.23
2019-04-07T18:34:27.375Z,100923.21
2019-04-07T18:37:30.042Z,100927.53
2019-04-07T18:40:16.636Z,100921.84
2019-04-07T18:43:13.854Z,100809.41
2019-04-07T18:46:08.440Z,100917.45
2019-04-07T18:48:51.320Z,100924.30
2019-04-07T18:51:47.159Z,100923.14
2019-04-07T18:54:39.941Z,100927.19
2019-04-07T18:57:21.622Z,100928.01
2019-04-07T19:00:12.784Z,100928.83
2019-04-07T19:03:00.284Z,100921.08
2019-04-07T19:05:49.224Z,100925.06
2019-04-07T19:08:41.684Z,100924.10
2019-04-07T19:11:29.663Z,100927.59
2019-04-07T19:14:29.133Z,100929.24
2019-04-07T19:16:55.262Z,100925.34
2019-04-07T19:19:50.566Z,100927.88
2019-04-07T19:22:43.230Z,100928.00
2019-04-07T19:25:44.587Z,100930.67
2019-04-07T19:28:34.222Z,100921.63
2019-04-07T19:31:16.863Z,100925.46
2019-04-07T19:33:58.664Z,100923.27
2019-04-07T19:36:38.103Z,100920.18
2019-04-07T19:39:30.721Z,100917.92
2019-04-07T19:42:28.511Z,100921.55
2019-04-07T19:45:06.994Z,100918.73
2019-04-07T19:47:48.062Z,100920.80
2019-04-07T19:50:35.431Z,100919.42
2019-04-07T19:53:28.667Z,100922.09
2019-04-07T19:56:18.902Z,100928.20
2019-04-07T19:59:08.954Z,100920.80
2019-04-07T20:01:59.042Z,100916.00
2019-04-07T20:04:47.788Z,100911.61
2019-04-07T20:07:44.876Z,100906.05
2019-04-07T20:10:39.541Z,100902.75
2019-04-07T20:13:27.064Z,100898.84
2019-04-07T20:16:20.501Z,100898.77
2019-04-07T20:18:59.898Z,100898.29
2019-04-07T20:22:04.800Z,100895.69
2019-04-07T20:24:56.621Z,100894.17
2019-04-07T20:27:51.246Z,100895.41
2019-04-07T20:30:38.317Z,100896.56
2019-04-07T20:33:34.082Z,100889.58
2019-04-07T20:36:23.069Z,100887.31
2019-04-07T20:39:02.294Z,100881.89
2019-04-07T20:41:51.037Z,100885.02
2019-04-07T20:44:38.311Z,100886.04
2019-04-07T20:47:33.065Z,100883.36
2019-04-07T20:50:19.556Z,100883.77
2019-04-07T20:53:12.614Z,100884.73
2019-04-07T20:56:00.383Z,100883.58
2019-04-07T20:58:47.377Z,100877.27
2019-04-07T21:01:22.358Z,100883.26
2019-04-07T21:04:08.709Z,100878.94
2019-04-07T21:07:12.123Z,100887.09
2019-04-07T21:10:09.524Z,100889.61
2019-04-07T21:12:55.683Z,100769.58
2019-04-07T21:15:59.462Z,100890.22
2019-04-07T21:19:04.192Z,100894.94
2019-04-07T21:21:55.849Z,100899.58
2019-04-07T21:24:45.477Z,100902.38
2019-04-07T21:27:36.028Z,100903.04
2019-04-07T21:30:31.156Z,100908.17
2019-04-07T21:33:15.387Z,100906.98
2019-04-07T21:36:06.394Z,100914.10
2019-04-07T21:38:55.099Z,100910.08
2019-04-07T21:41:58.369Z,100899.93
2019-04-07T21:44:45.696Z,100903.27
2019-04-07T21:47:33.168Z,100904.27
2019-04-07T21:50:30.848Z,100900.91
2019-04-07T21:53:22.915Z,100902.45
2019-04-07T21:56:13.311Z,100902.86
2019-04-07T21:59:04.353Z,100898.89
2019-04-07T22:01:55.708Z,100895.98
2019-04-07T22:04:44.062Z,100899.72
2019-04-07T22:07:33.580Z,100896.88
2019-04-07T22:10:05.390Z,100898.92
2019-04-07T22:12:34.542Z,100896.32
2019-04-07T22:15:04.699Z,100888.12
2019-04-07T22:17:37.092Z,100874.41
2019-04-07T22:20:06.066Z,100882.05
2019-04-07T22:22:35.468Z,100882.38
2019-04-07T22:25:07.953Z,100884.00
2019-04-07T22:27:36.131Z,100877.02
2019-04-07T22:30:09.382Z,100878.73
2019-04-07T22:32:38.815Z,100869.62
2019-04-07T22:35:08.609Z,100870.70
2019-04-07T22:37:37.843Z,100867.94
2019-04-07T22:40:18.133Z,100872.48
2019-04-07T22:42:48.838Z,100867.55
2019-04-07T22:45:19.350Z,100878.66
2019-04-07T22:47:51.553Z,100878.82
2019-04-07T22:50:19.574Z,100878.74
2019-04-07T22:52:50.852Z,100876.88
2019-04-07T22:55:20.757Z,100880.77
2019-04-07T22:57:50.457Z,100890.75
2019-04-07T23:00:23.710Z,100879.96
2019-04-07T23:02:54.113Z,100882.96
2019-04-07T23:05:24.420Z,100885.31
2019-04-07T23:07:54.422Z,100881.26
2019-04-07T23:10:23.670Z,100892.13
2019-04-07T23:12:52.916Z,100883.62
2019-04-07T23:15:22.876Z,100888.73
2019-04-07T23:17:52.333Z,100896.84
2019-04-07T23:20:21.627Z,100898.95
2019-04-07T23:22:52.064Z,100897.48
2019-04-07T23:25:23.000Z,100894.48
2019-04-07T23:27:52.493Z,100900.41
2019-04-07T23:30:25.680Z,100896.75
2019-04-07T23:32:55.658Z,100895.53
2019-04-07T23:35:25.019Z,100894.39
2019-04-07T23:37:55.251Z,100892.44
2019-04-07T23:40:25.906Z,100899.66
2019-04-07T23:42:55.354Z,100898.19
2019-04-07T23:45:25.317Z,100897.94
2019-04-07T23:47:55.097Z,100904.66
2019-04-07T23:50:25.208Z,100910.75
2019-04-07T23:52:55.952Z,100918.04
2019-04-07T23:55:25.860Z,100912.85
2019-04-07T23:57:55.113Z,100918.94
